Volcan De Tauce — EAGW — position and weather

sailwx.info

Track history (hours):
 
Tides and Currents Weather Stations Pressure Air Temp Water Temp Dewpoint Dewpoint Depression Visibility Wind Speed Wind Dir Waves Ship Positions

Volcan De Tauce

Last reported at 2016-Aug-28 18:33 UTC. Time now 2016-Aug-28 18:59 UTC.
Position N 28°08' W 015°25'.

Length 120 m; draft 4.8 m.

Type: Passenger vessel. MMSI: 224761000.

Date/timePositionNaut miles runAvg speedWind from/ knotsBaromVisibWave heightAir tempDewpointWater temp
2016-Aug-28 18:33N 28°08' W 015°25'0 0.0
2016-Aug-28 17:33N 28°08' W 015°25'0 0.0
2016-Aug-28 16:33N 28°08' W 015°25'0 0.0
2016-Aug-28 15:33N 28°08' W 015°25'0 0.0
2016-Aug-28 14:33N 28°08' W 015°25'0 0.0
2016-Aug-28 13:33N 28°08' W 015°25'0 0.0
2016-Aug-28 12:34N 28°08' W 015°25'0 0.0
2016-Aug-28 11:34N 28°08' W 015°25'0 0.0
2016-Aug-28 10:33N 28°08' W 015°25'0 0.0
2016-Aug-28 09:34N 28°08' W 015°25'0 0.0
2016-Aug-28 08:33N 28°08' W 015°25'0 0.0
2016-Aug-28 07:34N 28°08' W 015°25'0 0.0
2016-Aug-28 06:34N 28°08' W 015°25'0 0.0
2016-Aug-28 05:34N 28°08' W 015°25'0 0.0
2016-Aug-28 04:34N 28°08' W 015°25'0 0.0
2016-Aug-28 03:33N 28°08' W 015°25'0 0.0
2016-Aug-28 02:34N 28°08' W 015°25'0 0.0
2016-Aug-28 01:33N 28°08' W 015°25'0 0.0
2016-Aug-28 00:33N 28°08' W 015°25'0 0.0
2016-Aug-27 23:34N 28°08' W 015°25'0 0.0
2016-Aug-27 22:33N 28°08' W 015°25'0 0.0
2016-Aug-27 21:34N 28°08' W 015°25'0 0.0
2016-Aug-27 20:33N 28°08' W 015°25'0 0.0
2016-Aug-27 19:34N 28°08' W 015°25'0 0.0
2016-Aug-27 18:34N 28°08' W 015°25'0 0.0
2016-Aug-27 17:34N 28°08' W 015°25'0 0.0
2016-Aug-27 16:33N 28°08' W 015°25'1212.3
2016-Aug-27 15:34N 28°06' W 015°11'1616.0
2016-Aug-27 14:34N 28°04' W 014°53'1716.6
2016-Aug-27 13:33N 28°02' W 014°34'1616.3
2016-Aug-27 12:33N 28°03' W 014°16'2217.2
2016-Aug-27 11:17N 28°14' W 013°54'1416.0
2016-Aug-27 10:24N 28°27' W 013°50'3 0.9
2016-Aug-27 07:15N 28°30' W 013°51'0 0.0
2016-Aug-27 06:31N 28°30' W 013°51'2110.5
2016-Aug-27 04:33N 28°11' W 013°60'1515.5
2016-Aug-27 03:34N 28°03' W 014°15'1514.6
2016-Aug-27 02:31N 28°02' W 014°32'1414.8
2016-Aug-27 01:33N 28°03' W 014°48'1514.9
2016-Aug-27 00:33N 28°05' W 015°05'1515.3
2016-Aug-26 23:33N 28°07' W 015°22'3 2.7
2016-Aug-26 22:31N 28°08' W 015°25'0 0.0
2016-Aug-26 21:34N 28°08' W 015°25'0 0.0
2016-Aug-26 20:33N 28°08' W 015°25'3 3.0
2016-Aug-26 19:33N 28°07' W 015°22'1515.3
2016-Aug-26 18:33N 28°05' W 015°05'1616.0
2016-Aug-26 17:33N 28°03' W 014°46'1616.4
2016-Aug-26 16:33N 28°01' W 014°28'1616.5
2016-Aug-26 15:33N 28°06' W 014°10'29 5.4
2016-Aug-26 10:12N 28°30' W 013°51'0 0.0
2016-Aug-26 09:07N 28°30' W 013°51'0 0.0
2016-Aug-26 07:17N 28°30' W 013°51'22 7.4
2016-Aug-26 04:21N 28°10' W 014°01'1315.3
2016-Aug-26 03:30N 28°03' W 014°14'2014.5
2016-Aug-26 02:07N 28°02' W 014°37'814.9
2016-Aug-26 01:33N 28°03' W 014°46'1515.0
2016-Aug-26 00:33N 28°03' W 015°03'1615.6
2016-Aug-25 23:33N 28°07' W 015°20'5 4.4
2016-Aug-25 22:32N 28°08' W 015°25'0 0.0
2016-Aug-25 21:33N 28°08' W 015°25'0 0.0
2016-Aug-25 20:33N 28°08' W 015°25'0 0.0
2016-Aug-25 19:33N 28°08' W 015°25'0 0.0
2016-Aug-25 18:33N 28°08' W 015°25'0 0.0
2016-Aug-25 17:33N 28°08' W 015°25'0 0.1
2016-Aug-25 16:33N 28°08' W 015°25'1312.9
2016-Aug-25 15:34N 28°06' W 015°10'1615.7
2016-Aug-25 14:33N 28°04' W 014°53'1616.2
2016-Aug-25 13:33N 28°02' W 014°34'1915.8
2016-Aug-25 12:21N 28°04' W 014°13'1617.4
2016-Aug-25 11:26N 28°12' W 013°58'1616.0
2016-Aug-25 10:25N 28°26' W 013°49'4 1.9
2016-Aug-25 08:20N 28°30' W 013°51'0 0.0
2016-Aug-25 07:28N 28°30' W 013°51'0 0.0
2016-Aug-25 06:27N 28°30' W 013°51'18 9.6
2016-Aug-25 04:32N 28°12' W 013°57'1515.4
2016-Aug-25 03:33N 28°04' W 014°12'2014.2
2016-Aug-25 02:09N 28°02' W 014°34'914.9
2016-Aug-25 01:32N 28°02' W 014°44'1515.1
2016-Aug-25 00:33N 28°04' W 015°01'1615.6
2016-Aug-24 23:33N 28°06' W 015°18'6 5.9
2016-Aug-24 22:32N 28°08' W 015°25'0 0.0
2016-Aug-24 21:33N 28°08' W 015°25'0 0.0
2016-Aug-24 20:33N 28°08' W 015°25'0 0.0
2016-Aug-24 19:33N 28°08' W 015°25'0 0.0
2016-Aug-24 18:33N 28°08' W 015°25'0 0.0
2016-Aug-24 17:33N 28°08' W 015°25'1 0.5
2016-Aug-24 16:33N 28°08' W 015°25'1414.0
2016-Aug-24 15:34N 28°05' W 015°09'1616.0
2016-Aug-24 14:34N 28°04' W 014°51'1616.2
2016-Aug-24 13:33N 28°02' W 014°32'1616.1
2016-Aug-24 12:33N 28°03' W 014°14'1717.6
2016-Aug-24 11:33N 28°12' W 013°57'1615.8
2016-Aug-24 10:32N 28°27' W 013°50'3 3.2
2016-Aug-24 09:34N 28°30' W 013°51'0 0.0
2016-Aug-24 08:30N 28°30' W 013°51'0 0.0
2016-Aug-24 07:31N 28°30' W 013°51'1 0.6
2016-Aug-24 06:31N 28°29' W 013°51'2613.0
2016-Aug-24 04:32N 28°07' W 014°06'1414.8
2016-Aug-24 03:34N 28°01' W 014°20'1514.7
2016-Aug-24 02:34N 28°02' W 014°37'1515.1
2016-Aug-24 01:34N 28°03' W 014°54'1515.2
2016-Aug-24 00:34N 28°05' W 015°11'1312.4
2016-Aug-23 23:32N 28°08' W 015°25'0 0.0
2016-Aug-23 22:32N 28°08' W 015°25'0 0.0
2016-Aug-23 21:33N 28°08' W 015°25'0 0.0
2016-Aug-23 20:33N 28°08' W 015°25'0 0.0
2016-Aug-23 19:33N 28°08' W 015°25'0 0.0
2016-Aug-23 18:33N 28°08' W 015°25'0 0.0
2016-Aug-23 17:33N 28°08' W 015°25'1 0.7
2016-Aug-23 16:33N 28°08' W 015°25'1414.5
2016-Aug-23 15:34N 28°05' W 015°08'1616.1
2016-Aug-23 14:34N 28°04' W 014°50'1616.3
2016-Aug-23 13:33N 28°02' W 014°32'1616.3
2016-Aug-23 12:33N 28°03' W 014°13'1717.4
2016-Aug-23 11:33N 28°12' W 013°57'17 3.3
2016-Aug-23 06:29N 28°27' W 013°49'1414.4
2016-Aug-23 05:31N 28°14' W 013°53'1915.3
2016-Aug-23 04:19N 28°04' W 014°11'1114.5
2016-Aug-23 03:33N 28°01' W 014°22'1514.8
2016-Aug-23 02:33N 28°02' W 014°39'1514.9
2016-Aug-23 01:33N 28°04' W 014°56'1514.9
2016-Aug-23 00:33N 28°05' W 015°13'1111.0
2016-Aug-22 23:33N 28°08' W 015°25'0 0.0
2016-Aug-22 22:28N 28°08' W 015°25'0 0.0
2016-Aug-22 21:33N 28°08' W 015°25'0 0.0
2016-Aug-22 20:34N 28°08' W 015°25'0 0.0
2016-Aug-22 19:34N 28°08' W 015°25'0 0.0
2016-Aug-22 18:33N 28°08' W 015°25'0 0.0
2016-Aug-22 17:33N 28°08' W 015°25'0 0.0
2016-Aug-22 16:34N 28°08' W 015°25'0 0.0
2016-Aug-22 15:34N 28°08' W 015°25'0 0.0
2016-Aug-22 14:34N 28°08' W 015°25'0 0.0
2016-Aug-22 13:34N 28°08' W 015°25'0 0.0
2016-Aug-22 12:34N 28°08' W 015°25'0 0.0
2016-Aug-22 11:34N 28°08' W 015°25'0 0.0
2016-Aug-22 10:34N 28°08' W 015°25'0 0.0
2016-Aug-22 09:34N 28°08' W 015°25'0 0.0
2016-Aug-22 08:33N 28°08' W 015°25'0 0.0
2016-Aug-22 07:34N 28°08' W 015°25'0 0.0
2016-Aug-22 06:34N 28°08' W 015°25'0 0.0
2016-Aug-22 05:34N 28°08' W 015°25'0 0.0
2016-Aug-22 04:34N 28°08' W 015°25'0 0.0
2016-Aug-22 03:34N 28°08' W 015°25'0 0.0
2016-Aug-22 02:34N 28°08' W 015°25'0 0.0
2016-Aug-22 01:34N 28°08' W 015°25'0 0.0
2016-Aug-22 00:34N 28°08' W 015°25'0 0.0
2016-Aug-21 23:34N 28°08' W 015°25'0 0.0
2016-Aug-21 22:34N 28°08' W 015°25'0 0.0
2016-Aug-21 21:34N 28°08' W 015°25'0 0.0
2016-Aug-21 20:34N 28°08' W 015°25'0 0.0
2016-Aug-21 19:34N 28°08' W 015°25'0 0.0
2016-Aug-21 18:34N 28°08' W 015°25'0 0.0
2016-Aug-21 17:33N 28°08' W 015°25'0 0.0
2016-Aug-21 16:33N 28°08' W 015°25'0 0.0
2016-Aug-21 15:34N 28°08' W 015°25'0 0.0
2016-Aug-21 14:34N 28°08' W 015°25'0 0.0
2016-Aug-21 13:34N 28°08' W 015°25'0 0.0
2016-Aug-21 12:34N 28°08' W 015°25'0 0.0
2016-Aug-21 11:34N 28°08' W 015°25'0 0.0
2016-Aug-21 10:34N 28°08' W 015°25'0 0.0
2016-Aug-21 09:34N 28°08' W 015°25'0 0.0
2016-Aug-21 08:34N 28°08' W 015°25'0 0.0
2016-Aug-21 07:33N 28°08' W 015°25'0 0.0
2016-Aug-21 06:34N 28°08' W 015°25'0 0.0
2016-Aug-21 05:33N 28°08' W 015°25'0 0.0
2016-Aug-21 04:33N 28°08' W 015°25'0 0.0
2016-Aug-21 03:33N 28°08' W 015°25'0 0.0
2016-Aug-21 02:33N 28°08' W 015°25'0 0.0
2016-Aug-21 01:34N 28°08' W 015°25'0 0.0
2016-Aug-21 00:34N 28°08' W 015°25'0 0.0
2016-Aug-20 23:34N 28°08' W 015°25'0 0.0
2016-Aug-20 22:34N 28°08' W 015°25'0 0.0
2016-Aug-20 21:34N 28°08' W 015°25'0 0.0
2016-Aug-20 20:34N 28°08' W 015°25'0 0.0
2016-Aug-20 19:34N 28°08' W 015°25'0 0.0
2016-Aug-20 18:34N 28°08' W 015°25'0 0.0
2016-Aug-20 17:34N 28°08' W 015°25'0 0.0
2016-Aug-20 16:33N 28°08' W 015°25'1111.5
2016-Aug-20 15:33N 28°06' W 015°12'1616.0
2016-Aug-20 14:33N 28°04' W 014°54'1616.1
2016-Aug-20 13:33N 28°02' W 014°36'1716.5
2016-Aug-20 12:33N 28°02' W 014°17'19 2.3
2016-Aug-20 04:30N 28°11' W 013°59'1515.3
2016-Aug-20 03:33N 28°04' W 014°13'2914.5
2016-Aug-20 01:33N 28°02' W 014°46'1515.2
2016-Aug-20 00:33N 28°04' W 015°03'1615.6
2016-Aug-19 23:33N 28°07' W 015°21'4 4.0
2016-Aug-19 22:33N 28°08' W 015°25'0 0.0
2016-Aug-19 21:33N 28°08' W 015°25'0 0.0
2016-Aug-19 20:33N 28°08' W 015°25'0 0.0
2016-Aug-19 19:33N 28°08' W 015°25'0 0.0
2016-Aug-19 18:33N 28°08' W 015°25'0 0.0
2016-Aug-19 17:33N 28°08' W 015°25'1 1.0
2016-Aug-19 16:33N 28°07' W 015°25'1514.8
2016-Aug-19 15:33N 28°06' W 015°08'1615.7
2016-Aug-19 14:33N 28°04' W 014°50'1615.8
2016-Aug-19 13:32N 28°02' W 014°32'1616.1
2016-Aug-19 12:33N 28°03' W 014°14'1716.9
2016-Aug-19 11:33N 28°11' W 013°57'9 1.6
2016-Aug-19 05:33N 28°19' W 013°51'1413.5
2016-Aug-19 04:32N 28°09' W 014°02'1515.2
2016-Aug-19 03:33N 28°02' W 014°17'1414.4
2016-Aug-19 02:33N 28°01' W 014°33'1515.4
2016-Aug-19 01:34N 28°03' W 014°50'1515.2
2016-Aug-19 00:33N 28°05' W 015°07'1515.3
2016-Aug-18 23:33N 28°07' W 015°24'1 1.0
2016-Aug-18 22:33N 28°08' W 015°25'0 0.0
2016-Aug-18 21:33N 28°08' W 015°25'0 0.0
2016-Aug-18 20:34N 28°08' W 015°25'0 0.0
2016-Aug-18 19:33N 28°08' W 015°25'0 0.0
2016-Aug-18 18:33N 28°08' W 015°25'  
Track history (hours):
 
Tides and Currents Weather Stations Pressure Air Temp Water Temp Dewpoint Dewpoint Depression Visibility Wind Speed Wind Dir Waves Ship Positions

Volcan De Tauce

Last reported at 2016-Aug-28 18:33 UTC. Time now 2016-Aug-28 18:59 UTC.
Position N 28°08' W 015°25'.

Length 120 m; draft 4.8 m.

Type: Passenger vessel. MMSI: 224761000.

Date/timePositionNaut miles runAvg speedWind from/ knotsBaromVisibWave heightAir tempDewpointWater temp
2016-Aug-28 18:33N 28°08' W 015°25'0 0.0
2016-Aug-28 17:33N 28°08' W 015°25'0 0.0
2016-Aug-28 16:33N 28°08' W 015°25'0 0.0
2016-Aug-28 15:33N 28°08' W 015°25'0 0.0
2016-Aug-28 14:33N 28°08' W 015°25'0 0.0
2016-Aug-28 13:33N 28°08' W 015°25'0 0.0
2016-Aug-28 12:34N 28°08' W 015°25'0 0.0
2016-Aug-28 11:34N 28°08' W 015°25'0 0.0
2016-Aug-28 10:33N 28°08' W 015°25'0 0.0
2016-Aug-28 09:34N 28°08' W 015°25'0 0.0
2016-Aug-28 08:33N 28°08' W 015°25'0 0.0
2016-Aug-28 07:34N 28°08' W 015°25'0 0.0
2016-Aug-28 06:34N 28°08' W 015°25'0 0.0
2016-Aug-28 05:34N 28°08' W 015°25'0 0.0
2016-Aug-28 04:34N 28°08' W 015°25'0 0.0
2016-Aug-28 03:33N 28°08' W 015°25'0 0.0
2016-Aug-28 02:34N 28°08' W 015°25'0 0.0
2016-Aug-28 01:33N 28°08' W 015°25'0 0.0
2016-Aug-28 00:33N 28°08' W 015°25'0 0.0
2016-Aug-27 23:34N 28°08' W 015°25'0 0.0
2016-Aug-27 22:33N 28°08' W 015°25'0 0.0
2016-Aug-27 21:34N 28°08' W 015°25'0 0.0
2016-Aug-27 20:33N 28°08' W 015°25'0 0.0
2016-Aug-27 19:34N 28°08' W 015°25'0 0.0
2016-Aug-27 18:34N 28°08' W 015°25'0 0.0
2016-Aug-27 17:34N 28°08' W 015°25'0 0.0
2016-Aug-27 16:33N 28°08' W 015°25'1212.3
2016-Aug-27 15:34N 28°06' W 015°11'1616.0
2016-Aug-27 14:34N 28°04' W 014°53'1716.6
2016-Aug-27 13:33N 28°02' W 014°34'1616.3
2016-Aug-27 12:33N 28°03' W 014°16'2217.2
2016-Aug-27 11:17N 28°14' W 013°54'1416.0
2016-Aug-27 10:24N 28°27' W 013°50'3 0.9
2016-Aug-27 07:15N 28°30' W 013°51'0 0.0
2016-Aug-27 06:31N 28°30' W 013°51'2110.5
2016-Aug-27 04:33N 28°11' W 013°60'1515.5
2016-Aug-27 03:34N 28°03' W 014°15'1514.6
2016-Aug-27 02:31N 28°02' W 014°32'1414.8
2016-Aug-27 01:33N 28°03' W 014°48'1514.9
2016-Aug-27 00:33N 28°05' W 015°05'1515.3
2016-Aug-26 23:33N 28°07' W 015°22'3 2.7
2016-Aug-26 22:31N 28°08' W 015°25'0 0.0
2016-Aug-26 21:34N 28°08' W 015°25'0 0.0
2016-Aug-26 20:33N 28°08' W 015°25'3 3.0
2016-Aug-26 19:33N 28°07' W 015°22'1515.3
2016-Aug-26 18:33N 28°05' W 015°05'1616.0
2016-Aug-26 17:33N 28°03' W 014°46'1616.4
2016-Aug-26 16:33N 28°01' W 014°28'1616.5
2016-Aug-26 15:33N 28°06' W 014°10'29 5.4
2016-Aug-26 10:12N 28°30' W 013°51'0 0.0
2016-Aug-26 09:07N 28°30' W 013°51'0 0.0
2016-Aug-26 07:17N 28°30' W 013°51'22 7.4
2016-Aug-26 04:21N 28°10' W 014°01'1315.3
2016-Aug-26 03:30N 28°03' W 014°14'2014.5
2016-Aug-26 02:07N 28°02' W 014°37'814.9
2016-Aug-26 01:33N 28°03' W 014°46'1515.0
2016-Aug-26 00:33N 28°03' W 015°03'1615.6
2016-Aug-25 23:33N 28°07' W 015°20'5 4.4
2016-Aug-25 22:32N 28°08' W 015°25'0 0.0
2016-Aug-25 21:33N 28°08' W 015°25'0 0.0
2016-Aug-25 20:33N 28°08' W 015°25'0 0.0
2016-Aug-25 19:33N 28°08' W 015°25'0 0.0
2016-Aug-25 18:33N 28°08' W 015°25'0 0.0
2016-Aug-25 17:33N 28°08' W 015°25'0 0.1
2016-Aug-25 16:33N 28°08' W 015°25'1312.9
2016-Aug-25 15:34N 28°06' W 015°10'1615.7
2016-Aug-25 14:33N 28°04' W 014°53'1616.2
2016-Aug-25 13:33N 28°02' W 014°34'1915.8
2016-Aug-25 12:21N 28°04' W 014°13'1617.4
2016-Aug-25 11:26N 28°12' W 013°58'1616.0
2016-Aug-25 10:25N 28°26' W 013°49'4 1.9
2016-Aug-25 08:20N 28°30' W 013°51'0 0.0
2016-Aug-25 07:28N 28°30' W 013°51'0 0.0
2016-Aug-25 06:27N 28°30' W 013°51'18 9.6
2016-Aug-25 04:32N 28°12' W 013°57'1515.4
2016-Aug-25 03:33N 28°04' W 014°12'2014.2
2016-Aug-25 02:09N 28°02' W 014°34'914.9
2016-Aug-25 01:32N 28°02' W 014°44'1515.1
2016-Aug-25 00:33N 28°04' W 015°01'1615.6
2016-Aug-24 23:33N 28°06' W 015°18'6 5.9
2016-Aug-24 22:32N 28°08' W 015°25'0 0.0
2016-Aug-24 21:33N 28°08' W 015°25'0 0.0
2016-Aug-24 20:33N 28°08' W 015°25'0 0.0
2016-Aug-24 19:33N 28°08' W 015°25'0 0.0
2016-Aug-24 18:33N 28°08' W 015°25'0 0.0
2016-Aug-24 17:33N 28°08' W 015°25'1 0.5
2016-Aug-24 16:33N 28°08' W 015°25'1414.0
2016-Aug-24 15:34N 28°05' W 015°09'1616.0
2016-Aug-24 14:34N 28°04' W 014°51'1616.2
2016-Aug-24 13:33N 28°02' W 014°32'1616.1
2016-Aug-24 12:33N 28°03' W 014°14'1717.6
2016-Aug-24 11:33N 28°12' W 013°57'1615.8
2016-Aug-24 10:32N 28°27' W 013°50'3 3.2
2016-Aug-24 09:34N 28°30' W 013°51'0 0.0
2016-Aug-24 08:30N 28°30' W 013°51'0 0.0
2016-Aug-24 07:31N 28°30' W 013°51'1 0.6
2016-Aug-24 06:31N 28°29' W 013°51'2613.0
2016-Aug-24 04:32N 28°07' W 014°06'1414.8
2016-Aug-24 03:34N 28°01' W 014°20'1514.7
2016-Aug-24 02:34N 28°02' W 014°37'1515.1
2016-Aug-24 01:34N 28°03' W 014°54'1515.2
2016-Aug-24 00:34N 28°05' W 015°11'1312.4
2016-Aug-23 23:32N 28°08' W 015°25'0 0.0
2016-Aug-23 22:32N 28°08' W 015°25'0 0.0
2016-Aug-23 21:33N 28°08' W 015°25'0 0.0
2016-Aug-23 20:33N 28°08' W 015°25'0 0.0
2016-Aug-23 19:33N 28°08' W 015°25'0 0.0
2016-Aug-23 18:33N 28°08' W 015°25'0 0.0
2016-Aug-23 17:33N 28°08' W 015°25'1 0.7
2016-Aug-23 16:33N 28°08' W 015°25'1414.5
2016-Aug-23 15:34N 28°05' W 015°08'1616.1
2016-Aug-23 14:34N 28°04' W 014°50'1616.3
2016-Aug-23 13:33N 28°02' W 014°32'1616.3
2016-Aug-23 12:33N 28°03' W 014°13'1717.4
2016-Aug-23 11:33N 28°12' W 013°57'17 3.3
2016-Aug-23 06:29N 28°27' W 013°49'1414.4
2016-Aug-23 05:31N 28°14' W 013°53'1915.3
2016-Aug-23 04:19N 28°04' W 014°11'1114.5
2016-Aug-23 03:33N 28°01' W 014°22'1514.8
2016-Aug-23 02:33N 28°02' W 014°39'1514.9
2016-Aug-23 01:33N 28°04' W 014°56'1514.9
2016-Aug-23 00:33N 28°05' W 015°13'1111.0
2016-Aug-22 23:33N 28°08' W 015°25'0 0.0
2016-Aug-22 22:28N 28°08' W 015°25'0 0.0
2016-Aug-22 21:33N 28°08' W 015°25'0 0.0
2016-Aug-22 20:34N 28°08' W 015°25'0 0.0
2016-Aug-22 19:34N 28°08' W 015°25'0 0.0
2016-Aug-22 18:33N 28°08' W 015°25'0 0.0
2016-Aug-22 17:33N 28°08' W 015°25'0 0.0
2016-Aug-22 16:34N 28°08' W 015°25'0 0.0
2016-Aug-22 15:34N 28°08' W 015°25'0 0.0
2016-Aug-22 14:34N 28°08' W 015°25'0 0.0
2016-Aug-22 13:34N 28°08' W 015°25'0 0.0
2016-Aug-22 12:34N 28°08' W 015°25'0 0.0
2016-Aug-22 11:34N 28°08' W 015°25'0 0.0
2016-Aug-22 10:34N 28°08' W 015°25'0 0.0
2016-Aug-22 09:34N 28°08' W 015°25'0 0.0
2016-Aug-22 08:33N 28°08' W 015°25'0 0.0
2016-Aug-22 07:34N 28°08' W 015°25'0 0.0
2016-Aug-22 06:34N 28°08' W 015°25'0 0.0
2016-Aug-22 05:34N 28°08' W 015°25'0 0.0
2016-Aug-22 04:34N 28°08' W 015°25'0 0.0
2016-Aug-22 03:34N 28°08' W 015°25'0 0.0
2016-Aug-22 02:34N 28°08' W 015°25'0 0.0
2016-Aug-22 01:34N 28°08' W 015°25'0 0.0
2016-Aug-22 00:34N 28°08' W 015°25'0 0.0
2016-Aug-21 23:34N 28°08' W 015°25'0 0.0
2016-Aug-21 22:34N 28°08' W 015°25'0 0.0
2016-Aug-21 21:34N 28°08' W 015°25'0 0.0
2016-Aug-21 20:34N 28°08' W 015°25'0 0.0
2016-Aug-21 19:34N 28°08' W 015°25'0 0.0
2016-Aug-21 18:34N 28°08' W 015°25'0 0.0
2016-Aug-21 17:33N 28°08' W 015°25'0 0.0
2016-Aug-21 16:33N 28°08' W 015°25'0 0.0
2016-Aug-21 15:34N 28°08' W 015°25'0 0.0
2016-Aug-21 14:34N 28°08' W 015°25'0 0.0
2016-Aug-21 13:34N 28°08' W 015°25'0 0.0
2016-Aug-21 12:34N 28°08' W 015°25'0 0.0
2016-Aug-21 11:34N 28°08' W 015°25'0 0.0
2016-Aug-21 10:34N 28°08' W 015°25'0 0.0
2016-Aug-21 09:34N 28°08' W 015°25'0 0.0
2016-Aug-21 08:34N 28°08' W 015°25'0 0.0
2016-Aug-21 07:33N 28°08' W 015°25'0 0.0
2016-Aug-21 06:34N 28°08' W 015°25'0 0.0
2016-Aug-21 05:33N 28°08' W 015°25'0 0.0
2016-Aug-21 04:33N 28°08' W 015°25'0 0.0
2016-Aug-21 03:33N 28°08' W 015°25'0 0.0
2016-Aug-21 02:33N 28°08' W 015°25'0 0.0
2016-Aug-21 01:34N 28°08' W 015°25'0 0.0
2016-Aug-21 00:34N 28°08' W 015°25'0 0.0
2016-Aug-20 23:34N 28°08' W 015°25'0 0.0
2016-Aug-20 22:34N 28°08' W 015°25'0 0.0
2016-Aug-20 21:34N 28°08' W 015°25'0 0.0
2016-Aug-20 20:34N 28°08' W 015°25'0 0.0
2016-Aug-20 19:34N 28°08' W 015°25'0 0.0
2016-Aug-20 18:34N 28°08' W 015°25'0 0.0
2016-Aug-20 17:34N 28°08' W 015°25'0 0.0
2016-Aug-20 16:33N 28°08' W 015°25'1111.5
2016-Aug-20 15:33N 28°06' W 015°12'1616.0
2016-Aug-20 14:33N 28°04' W 014°54'1616.1
2016-Aug-20 13:33N 28°02' W 014°36'1716.5
2016-Aug-20 12:33N 28°02' W 014°17'19 2.3
2016-Aug-20 04:30N 28°11' W 013°59'1515.3
2016-Aug-20 03:33N 28°04' W 014°13'2914.5
2016-Aug-20 01:33N 28°02' W 014°46'1515.2
2016-Aug-20 00:33N 28°04' W 015°03'1615.6
2016-Aug-19 23:33N 28°07' W 015°21'4 4.0
2016-Aug-19 22:33N 28°08' W 015°25'0 0.0
2016-Aug-19 21:33N 28°08' W 015°25'0 0.0
2016-Aug-19 20:33N 28°08' W 015°25'0 0.0
2016-Aug-19 19:33N 28°08' W 015°25'0 0.0
2016-Aug-19 18:33N 28°08' W 015°25'0 0.0
2016-Aug-19 17:33N 28°08' W 015°25'1 1.0
2016-Aug-19 16:33N 28°07' W 015°25'1514.8
2016-Aug-19 15:33N 28°06' W 015°08'1615.7
2016-Aug-19 14:33N 28°04' W 014°50'1615.8
2016-Aug-19 13:32N 28°02' W 014°32'1616.1
2016-Aug-19 12:33N 28°03' W 014°14'1716.9
2016-Aug-19 11:33N 28°11' W 013°57'9 1.6
2016-Aug-19 05:33N 28°19' W 013°51'1413.5
2016-Aug-19 04:32N 28°09' W 014°02'1515.2
2016-Aug-19 03:33N 28°02' W 014°17'1414.4
2016-Aug-19 02:33N 28°01' W 014°33'1515.4
2016-Aug-19 01:34N 28°03' W 014°50'1515.2
2016-Aug-19 00:33N 28°05' W 015°07'1515.3
2016-Aug-18 23:33N 28°07' W 015°24'1 1.0
2016-Aug-18 22:33N 28°08' W 015°25'0 0.0
2016-Aug-18 21:33N 28°08' W 015°25'0 0.0
2016-Aug-18 20:34N 28°08' W 015°25'0 0.0
2016-Aug-18 19:33N 28°08' W 015°25'0 0.0
2016-Aug-18 18:33N 28°08' W 015°25'  

Dump ship's entire track history